sensor_id;sensor_type;location;lat;lon;timestamp;P1;durP1;ratioP1;P2;durP2;ratioP2
61085;SDS011;46967;48.876;2.136;2023-07-29T00:02:16;2.22;;;1.30;;
61085;SDS011;46967;48.876;2.136;2023-07-29T00:04:41;2.17;;;1.20;;
61085;SDS011;46967;48.876;2.136;2023-07-29T00:07:07;2.58;;;1.27;;
61085;SDS011;46967;48.876;2.136;2023-07-29T00:09:32;3.20;;;1.20;;
61085;SDS011;46967;48.876;2.136;2023-07-29T00:11:57;2.10;;;1.35;;
61085;SDS011;46967;48.876;2.136;2023-07-29T00:14:23;1.27;;;1.15;;
61085;SDS011;46967;48.876;2.136;2023-07-29T00:16:48;4.25;;;1.10;;
61085;SDS011;46967;48.876;2.136;2023-07-29T00:19:14;6.03;;;1.20;;
61085;SDS011;46967;48.876;2.136;2023-07-29T00:21:39;3.45;;;1.02;;
61085;SDS011;46967;48.876;2.136;2023-07-29T00:24:06;3.22;;;1.00;;
61085;SDS011;46967;48.876;2.136;2023-07-29T00:26:31;1.20;;;0.80;;
61085;SDS011;46967;48.876;2.136;2023-07-29T00:28:57;1.15;;;0.80;;
61085;SDS011;46967;48.876;2.136;2023-07-29T00:31:22;2.90;;;1.02;;
61085;SDS011;46967;48.876;2.136;2023-07-29T00:33:48;5.65;;;1.30;;
61085;SDS011;46967;48.876;2.136;2023-07-29T00:36:13;2.85;;;0.95;;
61085;SDS011;46967;48.876;2.136;2023-07-29T00:38:39;3.20;;;0.88;;
61085;SDS011;46967;48.876;2.136;2023-07-29T00:41:04;1.38;;;0.90;;
61085;SDS011;46967;48.876;2.136;2023-07-29T00:43:30;1.52;;;0.88;;
61085;SDS011;46967;48.876;2.136;2023-07-29T00:45:56;3.05;;;0.80;;
61085;SDS011;46967;48.876;2.136;2023-07-29T00:48:22;4.38;;;0.93;;
61085;SDS011;46967;48.876;2.136;2023-07-29T00:50:48;3.38;;;0.80;;
61085;SDS011;46967;48.876;2.136;2023-07-29T00:53:14;1.25;;;0.70;;
61085;SDS011;46967;48.876;2.136;2023-07-29T00:55:40;0.88;;;0.80;;
61085;SDS011;46967;48.876;2.136;2023-07-29T00:58:06;1.25;;;0.80;;
61085;SDS011;46967;48.876;2.136;2023-07-29T01:00:32;1.00;;;0.90;;
61085;SDS011;46967;48.876;2.136;2023-07-29T01:02:57;1.10;;;0.82;;
61085;SDS011;46967;48.876;2.136;2023-07-29T01:05:23;1.30;;;0.70;;
61085;SDS011;46967;48.876;2.136;2023-07-29T01:07:56;1.42;;;0.80;;
61085;SDS011;46967;48.876;2.136;2023-07-29T01:10:34;1.15;;;0.60;;
61085;SDS011;46967;48.876;2.136;2023-07-29T01:19:08;1.15;;;0.68;;
61085;SDS011;46967;48.876;2.136;2023-07-29T01:21:56;0.82;;;0.75;;
61085;SDS011;46967;48.876;2.136;2023-07-29T01:24:22;1.35;;;0.70;;
61085;SDS011;46967;48.876;2.136;2023-07-29T01:26:47;1.08;;;0.95;;
61085;SDS011;46967;48.876;2.136;2023-07-29T01:29:13;2.38;;;0.90;;
61085;SDS011;46967;48.876;2.136;2023-07-29T01:31:40;1.00;;;0.60;;
61085;SDS011;46967;48.876;2.136;2023-07-29T01:34:11;1.63;;;0.90;;
61085;SDS011;46967;48.876;2.136;2023-07-29T01:36:37;2.22;;;0.88;;
61085;SDS011;46967;48.876;2.136;2023-07-29T01:39:06;0.93;;;0.65;;
61085;SDS011;46967;48.876;2.136;2023-07-29T01:41:33;1.33;;;0.70;;
61085;SDS011;46967;48.876;2.136;2023-07-29T01:43:59;5.30;;;0.75;;
61085;SDS011;46967;48.876;2.136;2023-07-29T01:46:26;0.70;;;0.70;;
61085;SDS011;46967;48.876;2.136;2023-07-29T01:48:52;2.92;;;0.75;;
61085;SDS011;46967;48.876;2.136;2023-07-29T01:51:17;1.27;;;0.75;;
61085;SDS011;46967;48.876;2.136;2023-07-29T01:53:42;2.53;;;0.77;;
61085;SDS011;46967;48.876;2.136;2023-07-29T01:56:08;3.33;;;0.90;;
61085;SDS011;46967;48.876;2.136;2023-07-29T01:58:33;0.98;;;0.60;;
61085;SDS011;46967;48.876;2.136;2023-07-29T02:00:58;0.80;;;0.70;;
61085;SDS011;46967;48.876;2.136;2023-07-29T02:03:24;0.70;;;0.68;;
61085;SDS011;46967;48.876;2.136;2023-07-29T02:05:49;1.10;;;0.60;;
61085;SDS011;46967;48.876;2.136;2023-07-29T02:08:15;1.90;;;0.60;;
61085;SDS011;46967;48.876;2.136;2023-07-29T02:10:40;1.35;;;0.65;;
61085;SDS011;46967;48.876;2.136;2023-07-29T02:13:05;1.05;;;0.80;;
61085;SDS011;46967;48.876;2.136;2023-07-29T02:15:31;3.25;;;0.60;;
61085;SDS011;46967;48.876;2.136;2023-07-29T02:17:56;0.73;;;0.68;;
61085;SDS011;46967;48.876;2.136;2023-07-29T02:20:24;2.30;;;0.57;;
61085;SDS011;46967;48.876;2.136;2023-07-29T02:22:49;3.50;;;0.70;;
61085;SDS011;46967;48.876;2.136;2023-07-29T02:25:14;0.50;;;0.50;;
61085;SDS011;46967;48.876;2.136;2023-07-29T02:27:40;0.60;;;0.50;;
61085;SDS011;46967;48.876;2.136;2023-07-29T02:30:05;3.40;;;0.80;;
61085;SDS011;46967;48.876;2.136;2023-07-29T02:32:31;2.03;;;0.60;;
61085;SDS011;46967;48.876;2.136;2023-07-29T02:34:56;0.45;;;0.45;;
61085;SDS011;46967;48.876;2.136;2023-07-29T02:37:22;0.70;;;0.50;;
61085;SDS011;46967;48.876;2.136;2023-07-29T02:39:47;1.70;;;0.40;;
61085;SDS011;46967;48.876;2.136;2023-07-29T02:42:12;1.52;;;0.38;;
61085;SDS011;46967;48.876;2.136;2023-07-29T02:44:38;1.23;;;0.70;;
61085;SDS011;46967;48.876;2.136;2023-07-29T02:47:05;0.52;;;0.50;;
61085;SDS011;46967;48.876;2.136;2023-07-29T02:49:30;3.70;;;0.77;;
61085;SDS011;46967;48.876;2.136;2023-07-29T02:51:55;1.42;;;0.50;;
61085;SDS011;46967;48.876;2.136;2023-07-29T02:54:21;0.95;;;0.50;;
61085;SDS011;46967;48.876;2.136;2023-07-29T02:56:46;1.38;;;0.60;;
61085;SDS011;46967;48.876;2.136;2023-07-29T02:59:11;1.13;;;0.60;;
61085;SDS011;46967;48.876;2.136;2023-07-29T03:01:37;1.73;;;0.80;;
61085;SDS011;46967;48.876;2.136;2023-07-29T03:04:02;1.02;;;0.60;;
61085;SDS011;46967;48.876;2.136;2023-07-29T03:06:28;0.68;;;0.50;;
61085;SDS011;46967;48.876;2.136;2023-07-29T03:08:53;1.83;;;0.60;;
61085;SDS011;46967;48.876;2.136;2023-07-29T03:11:18;2.05;;;0.60;;
61085;SDS011;46967;48.876;2.136;2023-07-29T03:13:44;1.38;;;0.80;;
61085;SDS011;46967;48.876;2.136;2023-07-29T03:18:38;0.60;;;0.60;;
61085;SDS011;46967;48.876;2.136;2023-07-29T03:21:04;1.13;;;0.80;;
61085;SDS011;46967;48.876;2.136;2023-07-29T03:23:30;1.00;;;0.77;;
61085;SDS011;46967;48.876;2.136;2023-07-29T03:25:57;1.95;;;1.00;;
61085;SDS011;46967;48.876;2.136;2023-07-29T03:28:27;1.67;;;0.70;;
61085;SDS011;46967;48.876;2.136;2023-07-29T03:30:54;3.47;;;0.90;;
61085;SDS011;46967;48.876;2.136;2023-07-29T03:33:20;1.10;;;0.73;;
61085;SDS011;46967;48.876;2.136;2023-07-29T03:35:45;4.90;;;0.70;;
61085;SDS011;46967;48.876;2.136;2023-07-29T03:38:11;4.60;;;0.90;;
61085;SDS011;46967;48.876;2.136;2023-07-29T03:40:40;1.65;;;1.00;;
61085;SDS011;46967;48.876;2.136;2023-07-29T03:43:06;1.05;;;0.77;;
61085;SDS011;46967;48.876;2.136;2023-07-29T03:45:32;0.85;;;0.80;;
61085;SDS011;46967;48.876;2.136;2023-07-29T03:47:58;0.93;;;0.80;;
61085;SDS011;46967;48.876;2.136;2023-07-29T03:50:24;2.55;;;0.90;;
61085;SDS011;46967;48.876;2.136;2023-07-29T03:52:49;2.28;;;0.80;;
61085;SDS011;46967;48.876;2.136;2023-07-29T03:55:15;1.00;;;0.82;;
61085;SDS011;46967;48.876;2.136;2023-07-29T03:57:40;1.27;;;0.90;;
61085;SDS011;46967;48.876;2.136;2023-07-29T04:00:06;1.20;;;0.85;;
61085;SDS011;46967;48.876;2.136;2023-07-29T04:02:31;3.45;;;0.90;;
61085;SDS011;46967;48.876;2.136;2023-07-29T04:04:57;2.80;;;0.90;;
61085;SDS011;46967;48.876;2.136;2023-07-29T04:07:22;1.33;;;0.90;;
61085;SDS011;46967;48.876;2.136;2023-07-29T04:09:48;2.88;;;0.90;;
61085;SDS011;46967;48.876;2.136;2023-07-29T04:12:14;1.83;;;1.10;;
61085;SDS011;46967;48.876;2.136;2023-07-29T04:14:39;0.80;;;0.80;;
61085;SDS011;46967;48.876;2.136;2023-07-29T04:17:05;1.33;;;1.00;;
61085;SDS011;46967;48.876;2.136;2023-07-29T04:19:30;1.35;;;0.80;;
61085;SDS011;46967;48.876;2.136;2023-07-29T04:21:55;1.60;;;0.80;;
61085;SDS011;46967;48.876;2.136;2023-07-29T04:24:21;5.63;;;0.93;;
61085;SDS011;46967;48.876;2.136;2023-07-29T04:26:48;1.45;;;0.90;;
61085;SDS011;46967;48.876;2.136;2023-07-29T04:29:13;1.63;;;0.90;;
61085;SDS011;46967;48.876;2.136;2023-07-29T04:31:39;1.08;;;0.70;;
61085;SDS011;46967;48.876;2.136;2023-07-29T04:34:04;1.05;;;0.70;;
61085;SDS011;46967;48.876;2.136;2023-07-29T04:36:30;0.82;;;0.80;;
61085;SDS011;46967;48.876;2.136;2023-07-29T04:38:55;0.82;;;0.77;;
61085;SDS011;46967;48.876;2.136;2023-07-29T04:41:20;2.42;;;1.17;;
61085;SDS011;46967;48.876;2.136;2023-07-29T04:43:46;1.17;;;0.70;;
61085;SDS011;46967;48.876;2.136;2023-07-29T04:46:11;0.80;;;0.80;;
61085;SDS011;46967;48.876;2.136;2023-07-29T04:48:37;1.60;;;0.70;;
61085;SDS011;46967;48.876;2.136;2023-07-29T04:51:02;0.88;;;0.73;;
61085;SDS011;46967;48.876;2.136;2023-07-29T04:53:28;1.35;;;0.75;;
61085;SDS011;46967;48.876;2.136;2023-07-29T04:55:53;2.95;;;1.45;;
61085;SDS011;46967;48.876;2.136;2023-07-29T04:58:18;1.25;;;0.75;;
61085;SDS011;46967;48.876;2.136;2023-07-29T05:00:45;1.45;;;0.70;;
61085;SDS011;46967;48.876;2.136;2023-07-29T05:03:11;1.13;;;0.70;;
61085;SDS011;46967;48.876;2.136;2023-07-29T05:05:37;0.57;;;0.57;;
61085;SDS011;46967;48.876;2.136;2023-07-29T05:08:02;0.68;;;0.63;;
61085;SDS011;46967;48.876;2.136;2023-07-29T05:10:28;1.52;;;0.65;;
61085;SDS011;46967;48.876;2.136;2023-07-29T05:12:53;0.82;;;0.70;;
61085;SDS011;46967;48.876;2.136;2023-07-29T05:15:18;1.92;;;0.70;;
61085;SDS011;46967;48.876;2.136;2023-07-29T05:17:43;0.77;;;0.77;;
61085;SDS011;46967;48.876;2.136;2023-07-29T05:20:09;0.95;;;0.75;;
61085;SDS011;46967;48.876;2.136;2023-07-29T05:22:34;1.15;;;0.82;;
61085;SDS011;46967;48.876;2.136;2023-07-29T05:25:00;0.75;;;0.70;;
61085;SDS011;46967;48.876;2.136;2023-07-29T05:27:25;1.58;;;0.80;;
61085;SDS011;46967;48.876;2.136;2023-07-29T05:29:50;0.88;;;0.77;;
61085;SDS011;46967;48.876;2.136;2023-07-29T05:32:15;1.02;;;0.90;;
61085;SDS011;46967;48.876;2.136;2023-07-29T05:34:41;2.05;;;0.70;;
61085;SDS011;46967;48.876;2.136;2023-07-29T05:37:07;1.48;;;0.85;;
61085;SDS011;46967;48.876;2.136;2023-07-29T05:39:32;0.65;;;0.60;;
61085;SDS011;46967;48.876;2.136;2023-07-29T05:41:58;1.98;;;0.80;;
61085;SDS011;46967;48.876;2.136;2023-07-29T05:44:23;1.05;;;0.70;;
61085;SDS011;46967;48.876;2.136;2023-07-29T05:46:49;1.05;;;0.65;;
61085;SDS011;46967;48.876;2.136;2023-07-29T05:49:14;1.40;;;0.60;;
61085;SDS011;46967;48.876;2.136;2023-07-29T05:51:40;3.45;;;0.60;;
61085;SDS011;46967;48.876;2.136;2023-07-29T05:54:05;1.17;;;0.60;;
61085;SDS011;46967;48.876;2.136;2023-07-29T05:56:30;3.60;;;0.77;;
61085;SDS011;46967;48.876;2.136;2023-07-29T05:58:56;1.45;;;0.60;;
61085;SDS011;46967;48.876;2.136;2023-07-29T06:01:22;1.15;;;0.60;;
61085;SDS011;46967;48.876;2.136;2023-07-29T06:03:47;1.38;;;0.50;;
61085;SDS011;46967;48.876;2.136;2023-07-29T06:06:13;1.17;;;0.82;;
61085;SDS011;46967;48.876;2.136;2023-07-29T06:08:38;0.88;;;0.60;;
61085;SDS011;46967;48.876;2.136;2023-07-29T06:11:03;1.17;;;0.60;;
61085;SDS011;46967;48.876;2.136;2023-07-29T06:13:31;0.88;;;0.50;;
61085;SDS011;46967;48.876;2.136;2023-07-29T06:15:57;0.80;;;0.70;;
61085;SDS011;46967;48.876;2.136;2023-07-29T06:18:22;1.70;;;0.60;;
61085;SDS011;46967;48.876;2.136;2023-07-29T06:20:47;1.30;;;0.75;;
61085;SDS011;46967;48.876;2.136;2023-07-29T06:23:13;1.05;;;0.60;;
61085;SDS011;46967;48.876;2.136;2023-07-29T06:25:38;0.77;;;0.55;;
61085;SDS011;46967;48.876;2.136;2023-07-29T06:28:03;0.82;;;0.60;;
61085;SDS011;46967;48.876;2.136;2023-07-29T06:30:30;1.55;;;0.57;;
61085;SDS011;46967;48.876;2.136;2023-07-29T06:32:55;1.02;;;0.60;;
61085;SDS011;46967;48.876;2.136;2023-07-29T06:35:20;1.30;;;0.43;;
61085;SDS011;46967;48.876;2.136;2023-07-29T06:37:46;0.47;;;0.40;;
61085;SDS011;46967;48.876;2.136;2023-07-29T06:40:11;0.47;;;0.47;;
61085;SDS011;46967;48.876;2.136;2023-07-29T06:42:36;0.40;;;0.40;;
61085;SDS011;46967;48.876;2.136;2023-07-29T06:45:02;1.40;;;0.45;;
61085;SDS011;46967;48.876;2.136;2023-07-29T06:47:29;0.80;;;0.45;;
61085;SDS011;46967;48.876;2.136;2023-07-29T06:49:54;0.40;;;0.40;;
61085;SDS011;46967;48.876;2.136;2023-07-29T06:52:19;0.40;;;0.40;;
61085;SDS011;46967;48.876;2.136;2023-07-29T06:54:45;1.92;;;0.40;;
61085;SDS011;46967;48.876;2.136;2023-07-29T06:57:10;0.57;;;0.38;;
61085;SDS011;46967;48.876;2.136;2023-07-29T06:59:35;0.45;;;0.43;;
61085;SDS011;46967;48.876;2.136;2023-07-29T07:02:01;0.25;;;0.22;;
61085;SDS011;46967;48.876;2.136;2023-07-29T07:04:27;2.60;;;0.70;;
61085;SDS011;46967;48.876;2.136;2023-07-29T07:06:52;1.02;;;0.32;;
61085;SDS011;46967;48.876;2.136;2023-07-29T07:09:17;0.77;;;0.40;;
61085;SDS011;46967;48.876;2.136;2023-07-29T07:11:43;1.00;;;0.38;;
61085;SDS011;46967;48.876;2.136;2023-07-29T07:14:08;1.08;;;0.40;;
61085;SDS011;46967;48.876;2.136;2023-07-29T07:16:33;0.75;;;0.60;;
61085;SDS011;46967;48.876;2.136;2023-07-29T07:19:01;0.52;;;0.52;;
61085;SDS011;46967;48.876;2.136;2023-07-29T07:21:27;0.40;;;0.40;;
61085;SDS011;46967;48.876;2.136;2023-07-29T07:23:52;0.82;;;0.55;;
61085;SDS011;46967;48.876;2.136;2023-07-29T07:26:17;0.35;;;0.30;;
61085;SDS011;46967;48.876;2.136;2023-07-29T07:28:43;0.40;;;0.40;;
61085;SDS011;46967;48.876;2.136;2023-07-29T07:31:08;0.68;;;0.50;;
61085;SDS011;46967;48.876;2.136;2023-07-29T07:33:33;1.23;;;0.50;;
61085;SDS011;46967;48.876;2.136;2023-07-29T07:35:59;1.10;;;0.43;;
61085;SDS011;46967;48.876;2.136;2023-07-29T07:38:24;1.10;;;0.47;;
61085;SDS011;46967;48.876;2.136;2023-07-29T07:40:53;0.77;;;0.40;;
61085;SDS011;46967;48.876;2.136;2023-07-29T07:43:20;1.85;;;0.40;;
61085;SDS011;46967;48.876;2.136;2023-07-29T07:45:45;0.73;;;0.40;;
61085;SDS011;46967;48.876;2.136;2023-07-29T07:48:10;2.38;;;0.38;;
61085;SDS011;46967;48.876;2.136;2023-07-29T07:50:38;0.85;;;0.60;;
61085;SDS011;46967;48.876;2.136;2023-07-29T07:53:03;0.60;;;0.40;;
61085;SDS011;46967;48.876;2.136;2023-07-29T07:55:29;0.40;;;0.40;;
61085;SDS011;46967;48.876;2.136;2023-07-29T07:57:54;1.02;;;0.50;;
61085;SDS011;46967;48.876;2.136;2023-07-29T08:00:20;0.93;;;0.40;;
61085;SDS011;46967;48.876;2.136;2023-07-29T08:02:45;0.65;;;0.50;;
61085;SDS011;46967;48.876;2.136;2023-07-29T08:05:11;1.58;;;0.52;;
61085;SDS011;46967;48.876;2.136;2023-07-29T08:07:36;0.60;;;0.40;;
61085;SDS011;46967;48.876;2.136;2023-07-29T08:10:02;1.35;;;0.60;;
61085;SDS011;46967;48.876;2.136;2023-07-29T08:12:27;0.52;;;0.47;;
61085;SDS011;46967;48.876;2.136;2023-07-29T08:14:55;0.68;;;0.43;;
61085;SDS011;46967;48.876;2.136;2023-07-29T08:17:21;2.17;;;0.52;;
61085;SDS011;46967;48.876;2.136;2023-07-29T08:19:46;0.65;;;0.40;;
61085;SDS011;46967;48.876;2.136;2023-07-29T08:22:12;0.85;;;0.65;;
61085;SDS011;46967;48.876;2.136;2023-07-29T08:24:37;1.17;;;0.55;;
61085;SDS011;46967;48.876;2.136;2023-07-29T08:27:02;0.40;;;0.40;;
61085;SDS011;46967;48.876;2.136;2023-07-29T08:29:28;0.75;;;0.50;;
61085;SDS011;46967;48.876;2.136;2023-07-29T08:31:53;1.17;;;0.50;;
61085;SDS011;46967;48.876;2.136;2023-07-29T08:34:20;1.02;;;0.60;;
61085;SDS011;46967;48.876;2.136;2023-07-29T08:36:45;1.25;;;0.57;;
61085;SDS011;46967;48.876;2.136;2023-07-29T08:39:11;0.73;;;0.40;;
61085;SDS011;46967;48.876;2.136;2023-07-29T08:41:47;0.80;;;0.40;;
61085;SDS011;46967;48.876;2.136;2023-07-29T08:44:20;3.80;;;0.50;;
61085;SDS011;46967;48.876;2.136;2023-07-29T08:46:48;0.82;;;0.45;;
61085;SDS011;46967;48.876;2.136;2023-07-29T08:49:14;0.98;;;0.35;;
61085;SDS011;46967;48.876;2.136;2023-07-29T08:51:43;0.52;;;0.52;;
61085;SDS011;46967;48.876;2.136;2023-07-29T08:54:10;0.68;;;0.30;;
61085;SDS011;46967;48.876;2.136;2023-07-29T08:56:36;1.58;;;0.50;;
61085;SDS011;46967;48.876;2.136;2023-07-29T08:59:02;0.40;;;0.30;;
61085;SDS011;46967;48.876;2.136;2023-07-29T09:01:29;0.47;;;0.40;;
61085;SDS011;46967;48.876;2.136;2023-07-29T09:03:55;1.70;;;0.40;;
61085;SDS011;46967;48.876;2.136;2023-07-29T09:06:21;1.67;;;0.50;;
61085;SDS011;46967;48.876;2.136;2023-07-29T09:08:48;2.20;;;0.60;;
61085;SDS011;46967;48.876;2.136;2023-07-29T09:11:15;0.47;;;0.40;;
61085;SDS011;46967;48.876;2.136;2023-07-29T09:13:42;0.68;;;0.40;;
61085;SDS011;46967;48.876;2.136;2023-07-29T09:16:08;0.68;;;0.47;;
61085;SDS011;46967;48.876;2.136;2023-07-29T09:18:34;0.65;;;0.40;;
61085;SDS011;46967;48.876;2.136;2023-07-29T09:20:59;3.78;;;0.63;;
61085;SDS011;46967;48.876;2.136;2023-07-29T09:23:28;0.70;;;0.50;;
61085;SDS011;46967;48.876;2.136;2023-07-29T09:26:04;1.45;;;0.60;;
61085;SDS011;46967;48.876;2.136;2023-07-29T09:28:36;1.08;;;0.60;;
61085;SDS011;46967;48.876;2.136;2023-07-29T09:31:03;0.95;;;0.52;;
61085;SDS011;46967;48.876;2.136;2023-07-29T09:33:29;0.80;;;0.50;;
61085;SDS011;46967;48.876;2.136;2023-07-29T09:35:59;0.63;;;0.57;;
61085;SDS011;46967;48.876;2.136;2023-07-29T09:38:28;0.50;;;0.50;;
61085;SDS011;46967;48.876;2.136;2023-07-29T09:40:57;0.98;;;0.50;;
61085;SDS011;46967;48.876;2.136;2023-07-29T09:43:29;1.13;;;0.50;;
61085;SDS011;46967;48.876;2.136;2023-07-29T09:45:56;0.52;;;0.52;;
61085;SDS011;46967;48.876;2.136;2023-07-29T09:48:26;0.70;;;0.60;;
61085;SDS011;46967;48.876;2.136;2023-07-29T09:50:51;0.75;;;0.60;;
61085;SDS011;46967;48.876;2.136;2023-07-29T09:53:16;0.77;;;0.77;;
61085;SDS011;46967;48.876;2.136;2023-07-29T09:55:46;1.00;;;0.70;;
61085;SDS011;46967;48.876;2.136;2023-07-29T09:58:19;2.00;;;0.82;;
61085;SDS011;46967;48.876;2.136;2023-07-29T10:00:51;1.73;;;0.85;;
61085;SDS011;46967;48.876;2.136;2023-07-29T10:03:17;2.42;;;0.98;;
61085;SDS011;46967;48.876;2.136;2023-07-29T10:05:45;0.60;;;0.60;;
61085;SDS011;46967;48.876;2.136;2023-07-29T10:08:11;1.15;;;0.63;;
61085;SDS011;46967;48.876;2.136;2023-07-29T10:10:45;1.13;;;0.60;;
61085;SDS011;46967;48.876;2.136;2023-07-29T10:13:11;2.03;;;0.70;;
61085;SDS011;46967;48.876;2.136;2023-07-29T10:15:37;1.65;;;0.60;;
61085;SDS011;46967;48.876;2.136;2023-07-29T10:18:03;1.35;;;0.70;;
61085;SDS011;46967;48.876;2.136;2023-07-29T10:20:32;2.85;;;0.70;;
61085;SDS011;46967;48.876;2.136;2023-07-29T10:23:00;0.60;;;0.60;;
61085;SDS011;46967;48.876;2.136;2023-07-29T10:25:40;1.75;;;0.80;;
61085;SDS011;46967;48.876;2.136;2023-07-29T10:28:11;1.13;;;0.80;;
61085;SDS011;46967;48.876;2.136;2023-07-29T10:30:38;1.55;;;0.70;;
61085;SDS011;46967;48.876;2.136;2023-07-29T10:33:04;0.63;;;0.60;;
61085;SDS011;46967;48.876;2.136;2023-07-29T10:35:32;1.48;;;0.70;;
61085;SDS011;46967;48.876;2.136;2023-07-29T10:37:58;1.30;;;0.70;;
61085;SDS011;46967;48.876;2.136;2023-07-29T10:40:24;0.93;;;0.80;;
61085;SDS011;46967;48.876;2.136;2023-07-29T10:43:02;1.00;;;0.65;;
61085;SDS011;46967;48.876;2.136;2023-07-29T10:45:40;2.35;;;1.25;;
61085;SDS011;46967;48.876;2.136;2023-07-29T10:48:08;5.20;;;1.17;;
61085;SDS011;46967;48.876;2.136;2023-07-29T10:53:01;2.45;;;0.80;;
61085;SDS011;46967;48.876;2.136;2023-07-29T10:55:27;1.73;;;0.88;;
61085;SDS011;46967;48.876;2.136;2023-07-29T10:58:05;1.45;;;0.82;;
61085;SDS011;46967;48.876;2.136;2023-07-29T11:00:32;1.98;;;0.70;;
61085;SDS011;46967;48.876;2.136;2023-07-29T11:03:03;0.80;;;0.80;;
61085;SDS011;46967;48.876;2.136;2023-07-29T11:05:47;1.25;;;0.80;;
61085;SDS011;46967;48.876;2.136;2023-07-29T11:11:03;0.60;;;0.60;;
61085;SDS011;46967;48.876;2.136;2023-07-29T11:13:36;1.90;;;0.70;;
61085;SDS011;46967;48.876;2.136;2023-07-29T11:16:02;1.35;;;1.05;;
61085;SDS011;46967;48.876;2.136;2023-07-29T11:18:29;3.72;;;0.77;;
61085;SDS011;46967;48.876;2.136;2023-07-29T11:20:56;1.65;;;1.02;;
61085;SDS011;46967;48.876;2.136;2023-07-29T11:23:35;0.70;;;0.70;;
61085;SDS011;46967;48.876;2.136;2023-07-29T11:26:02;1.60;;;0.80;;
61085;SDS011;46967;48.876;2.136;2023-07-29T11:28:28;1.15;;;0.73;;
61085;SDS011;46967;48.876;2.136;2023-07-29T11:30:57;2.83;;;0.80;;
61085;SDS011;46967;48.876;2.136;2023-07-29T11:33:24;0.60;;;0.60;;
61085;SDS011;46967;48.876;2.136;2023-07-29T11:35:51;1.02;;;0.65;;
61085;SDS011;46967;48.876;2.136;2023-07-29T11:38:17;3.63;;;0.60;;
61085;SDS011;46967;48.876;2.136;2023-07-29T11:40:43;5.43;;;0.95;;
61085;SDS011;46967;48.876;2.136;2023-07-29T11:43:34;5.88;;;1.40;;
61085;SDS011;46967;48.876;2.136;2023-07-29T11:46:01;3.63;;;1.25;;
61085;SDS011;46967;48.876;2.136;2023-07-29T11:48:27;0.82;;;0.68;;
61085;SDS011;46967;48.876;2.136;2023-07-29T11:50:59;2.92;;;0.60;;
61085;SDS011;46967;48.876;2.136;2023-07-29T11:53:28;0.70;;;0.57;;
61085;SDS011;46967;48.876;2.136;2023-07-29T11:55:55;1.05;;;0.52;;
61085;SDS011;46967;48.876;2.136;2023-07-29T11:58:21;1.92;;;0.70;;
61085;SDS011;46967;48.876;2.136;2023-07-29T12:00:46;1.02;;;0.70;;
61085;SDS011;46967;48.876;2.136;2023-07-29T12:03:12;0.50;;;0.50;;
61085;SDS011;46967;48.876;2.136;2023-07-29T12:05:37;4.43;;;0.70;;
61085;SDS011;46967;48.876;2.136;2023-07-29T12:08:03;0.88;;;0.68;;
61085;SDS011;46967;48.876;2.136;2023-07-29T12:10:29;0.98;;;0.68;;
61085;SDS011;46967;48.876;2.136;2023-07-29T12:12:55;1.83;;;0.70;;
61085;SDS011;46967;48.876;2.136;2023-07-29T12:15:24;1.02;;;0.60;;
61085;SDS011;46967;48.876;2.136;2023-07-29T12:17:52;1.52;;;0.70;;
61085;SDS011;46967;48.876;2.136;2023-07-29T12:22:45;3.65;;;0.70;;
61085;SDS011;46967;48.876;2.136;2023-07-29T12:25:17;0.95;;;0.55;;
61085;SDS011;46967;48.876;2.136;2023-07-29T12:27:43;2.10;;;0.90;;
61085;SDS011;46967;48.876;2.136;2023-07-29T12:30:08;0.80;;;0.70;;
61085;SDS011;46967;48.876;2.136;2023-07-29T12:32:42;1.88;;;0.80;;
61085;SDS011;46967;48.876;2.136;2023-07-29T12:35:12;0.85;;;0.60;;
61085;SDS011;46967;48.876;2.136;2023-07-29T12:37:37;0.88;;;0.60;;
61085;SDS011;46967;48.876;2.136;2023-07-29T12:40:04;0.80;;;0.75;;
61085;SDS011;46967;48.876;2.136;2023-07-29T12:42:30;2.28;;;0.80;;
61085;SDS011;46967;48.876;2.136;2023-07-29T12:44:55;1.48;;;0.75;;
61085;SDS011;46967;48.876;2.136;2023-07-29T12:47:20;2.28;;;0.90;;
61085;SDS011;46967;48.876;2.136;2023-07-29T12:49:46;3.20;;;0.70;;
61085;SDS011;46967;48.876;2.136;2023-07-29T12:52:11;4.35;;;0.80;;
61085;SDS011;46967;48.876;2.136;2023-07-29T12:54:36;1.40;;;0.80;;
61085;SDS011;46967;48.876;2.136;2023-07-29T12:57:02;3.10;;;0.90;;
61085;SDS011;46967;48.876;2.136;2023-07-29T12:59:27;1.13;;;0.80;;
61085;SDS011;46967;48.876;2.136;2023-07-29T13:01:52;0.50;;;0.50;;
61085;SDS011;46967;48.876;2.136;2023-07-29T13:04:18;1.65;;;0.80;;
61085;SDS011;46967;48.876;2.136;2023-07-29T13:06:43;3.97;;;0.95;;
61085;SDS011;46967;48.876;2.136;2023-07-29T13:09:08;0.93;;;0.70;;
61085;SDS011;46967;48.876;2.136;2023-07-29T13:11:34;2.92;;;0.77;;
61085;SDS011;46967;48.876;2.136;2023-07-29T13:13:59;1.67;;;0.60;;
61085;SDS011;46967;48.876;2.136;2023-07-29T13:16:25;1.00;;;0.70;;
61085;SDS011;46967;48.876;2.136;2023-07-29T13:18:51;2.35;;;0.73;;
61085;SDS011;46967;48.876;2.136;2023-07-29T13:21:17;1.55;;;0.82;;
61085;SDS011;46967;48.876;2.136;2023-07-29T13:23:42;0.82;;;0.60;;
61085;SDS011;46967;48.876;2.136;2023-07-29T13:26:07;1.42;;;0.70;;
61085;SDS011;46967;48.876;2.136;2023-07-29T13:28:33;2.83;;;0.80;;
61085;SDS011;46967;48.876;2.136;2023-07-29T13:30:58;1.50;;;1.00;;
61085;SDS011;46967;48.876;2.136;2023-07-29T13:33:23;2.85;;;0.80;;
61085;SDS011;46967;48.876;2.136;2023-07-29T13:35:49;1.95;;;0.90;;
61085;SDS011;46967;48.876;2.136;2023-07-29T13:38:15;1.13;;;0.65;;
61085;SDS011;46967;48.876;2.136;2023-07-29T13:40:41;2.45;;;0.90;;
61085;SDS011;46967;48.876;2.136;2023-07-29T13:43:06;1.50;;;0.90;;
61085;SDS011;46967;48.876;2.136;2023-07-29T13:45:33;0.93;;;0.88;;
61085;SDS011;46967;48.876;2.136;2023-07-29T13:48:00;2.05;;;0.80;;
61085;SDS011;46967;48.876;2.136;2023-07-29T13:50:25;2.35;;;1.20;;
61085;SDS011;46967;48.876;2.136;2023-07-29T13:52:50;1.58;;;0.80;;
61085;SDS011;46967;48.876;2.136;2023-07-29T13:55:16;3.47;;;0.80;;
61085;SDS011;46967;48.876;2.136;2023-07-29T13:57:41;1.30;;;0.60;;
61085;SDS011;46967;48.876;2.136;2023-07-29T14:00:07;0.70;;;0.70;;
61085;SDS011;46967;48.876;2.136;2023-07-29T14:02:33;2.13;;;0.70;;
61085;SDS011;46967;48.876;2.136;2023-07-29T14:04:58;1.25;;;0.70;;
61085;SDS011;46967;48.876;2.136;2023-07-29T14:07:24;2.30;;;0.60;;
61085;SDS011;46967;48.876;2.136;2023-07-29T14:09:49;1.60;;;0.60;;
61085;SDS011;46967;48.876;2.136;2023-07-29T14:12:14;2.03;;;0.60;;
61085;SDS011;46967;48.876;2.136;2023-07-29T14:14:43;1.10;;;0.70;;
61085;SDS011;46967;48.876;2.136;2023-07-29T14:17:08;0.98;;;0.50;;
61085;SDS011;46967;48.876;2.136;2023-07-29T14:19:34;1.23;;;0.65;;
61085;SDS011;46967;48.876;2.136;2023-07-29T14:22:00;1.83;;;0.68;;
61085;SDS011;46967;48.876;2.136;2023-07-29T14:24:25;0.75;;;0.60;;
61085;SDS011;46967;48.876;2.136;2023-07-29T14:26:51;1.40;;;0.60;;
61085;SDS011;46967;48.876;2.136;2023-07-29T14:29:16;0.95;;;0.70;;
61085;SDS011;46967;48.876;2.136;2023-07-29T14:31:41;0.80;;;0.60;;
61085;SDS011;46967;48.876;2.136;2023-07-29T14:34:07;2.75;;;0.70;;
61085;SDS011;46967;48.876;2.136;2023-07-29T14:36:32;1.50;;;0.63;;
61085;SDS011;46967;48.876;2.136;2023-07-29T14:38:57;2.15;;;0.77;;
61085;SDS011;46967;48.876;2.136;2023-07-29T14:41:23;1.48;;;0.93;;
61085;SDS011;46967;48.876;2.136;2023-07-29T14:43:48;2.97;;;1.20;;
61085;SDS011;46967;48.876;2.136;2023-07-29T14:46:13;3.97;;;1.13;;
61085;SDS011;46967;48.876;2.136;2023-07-29T14:48:39;3.13;;;1.25;;
61085;SDS011;46967;48.876;2.136;2023-07-29T14:51:04;2.38;;;1.13;;
61085;SDS011;46967;48.876;2.136;2023-07-29T14:53:29;2.38;;;1.20;;
61085;SDS011;46967;48.876;2.136;2023-07-29T14:55:54;4.82;;;1.25;;
61085;SDS011;46967;48.876;2.136;2023-07-29T14:58:20;7.03;;;1.45;;
61085;SDS011;46967;48.876;2.136;2023-07-29T15:00:45;15.30;;;1.70;;